createdAt,value
2023-09-12T00:01:14.919Z,100.00
2023-09-12T00:03:42.813Z,100.00
2023-09-12T00:06:10.730Z,100.00
2023-09-12T00:08:38.404Z,100.00
2023-09-12T00:11:07.914Z,100.00
2023-09-12T00:13:35.756Z,100.00
2023-09-12T00:16:03.431Z,100.00
2023-09-12T00:18:31.506Z,100.00
2023-09-12T00:21:02.171Z,100.00
2023-09-12T00:23:30.087Z,100.00
2023-09-12T00:25:58.668Z,100.00
2023-09-12T00:28:26.534Z,100.00
2023-09-12T00:30:54.298Z,100.00
2023-09-12T00:33:22.347Z,100.00
2023-09-12T00:35:50.129Z,100.00
2023-09-12T00:38:17.802Z,100.00
2023-09-12T00:40:45.460Z,100.00
2023-09-12T00:43:13.332Z,100.00
2023-09-12T00:45:41.336Z,100.00
2023-09-12T00:48:10.653Z,100.00
2023-09-12T00:50:38.359Z,100.00
2023-09-12T00:53:06.121Z,100.00
2023-09-12T00:55:34.301Z,100.00
2023-09-12T00:58:02.877Z,100.00
2023-09-12T01:00:30.529Z,100.00
2023-09-12T01:02:59.277Z,100.00
2023-09-12T01:05:27.285Z,100.00
2023-09-12T01:07:55.257Z,100.00
2023-09-12T01:10:22.824Z,100.00
2023-09-12T01:12:50.478Z,100.00
2023-09-12T01:15:18.371Z,100.00
2023-09-12T01:17:46.653Z,100.00
2023-09-12T01:20:26.540Z,100.00
2023-09-12T01:22:56.069Z,100.00
2023-09-12T01:25:41.450Z,100.00
2023-09-12T01:28:10.533Z,100.00
2023-09-12T01:30:38.229Z,100.00
2023-09-12T01:33:06.192Z,100.00
2023-09-12T01:35:33.931Z,100.00
2023-09-12T01:38:01.600Z,100.00
2023-09-12T01:40:52.226Z,100.00
2023-09-12T01:43:23.145Z,100.00
2023-09-12T01:45:55.249Z,100.00
2023-09-12T01:48:25.018Z,100.00
2023-09-12T01:50:52.667Z,100.00
2023-09-12T01:53:20.513Z,100.00
2023-09-12T01:57:15.314Z,100.00
2023-09-12T01:59:43.613Z,100.00
2023-09-12T02:02:11.592Z,100.00
2023-09-12T02:04:39.259Z,100.00
2023-09-12T02:07:07.525Z,100.00
2023-09-12T02:09:35.450Z,100.00
2023-09-12T02:12:03.449Z,100.00
2023-09-12T02:14:31.120Z,100.00
2023-09-12T02:16:59.464Z,100.00
2023-09-12T02:19:28.107Z,100.00
2023-09-12T02:21:56.664Z,100.00
2023-09-12T02:24:26.191Z,100.00
2023-09-12T02:26:53.930Z,100.00
2023-09-12T02:29:22.000Z,100.00
2023-09-12T02:31:49.713Z,100.00
2023-09-12T02:34:17.729Z,100.00
2023-09-12T02:36:45.404Z,100.00
2023-09-12T02:39:13.402Z,100.00
2023-09-12T02:41:41.124Z,100.00
2023-09-12T02:44:08.682Z,100.00
2023-09-12T02:46:37.998Z,100.00
2023-09-12T02:49:05.652Z,100.00
2023-09-12T02:51:33.342Z,100.00
2023-09-12T02:54:01.072Z,100.00
2023-09-12T02:56:28.832Z,100.00
2023-09-12T02:58:56.489Z,100.00
2023-09-12T03:01:24.183Z,100.00
2023-09-12T03:03:52.138Z,100.00
2023-09-12T03:06:19.989Z,100.00
2023-09-12T03:08:48.793Z,100.00
2023-09-12T03:11:16.540Z,100.00
2023-09-12T03:13:44.139Z,100.00
2023-09-12T03:16:12.606Z,100.00
2023-09-12T03:18:40.689Z,100.00
2023-09-12T03:21:09.203Z,100.00
2023-09-12T03:23:36.894Z,100.00
2023-09-12T03:26:05.169Z,100.00
2023-09-12T03:28:33.242Z,100.00
2023-09-12T03:31:15.687Z,100.00
2023-09-12T03:33:44.363Z,100.00
2023-09-12T03:36:12.430Z,100.00
2023-09-12T03:38:40.457Z,100.00
2023-09-12T03:41:08.749Z,100.00
2023-09-12T03:43:37.641Z,100.00
2023-09-12T03:46:05.740Z,100.00
2023-09-12T03:48:34.015Z,100.00
2023-09-12T03:51:02.373Z,100.00
2023-09-12T03:53:30.334Z,100.00
2023-09-12T03:55:59.121Z,100.00
2023-09-12T03:58:26.993Z,100.00
2023-09-12T04:00:54.751Z,100.00
2023-09-12T04:03:22.723Z,100.00
2023-09-12T04:05:52.837Z,100.00
2023-09-12T04:08:20.599Z,100.00
2023-09-12T04:10:48.273Z,100.00
2023-09-12T04:13:16.147Z,100.00
2023-09-12T04:15:43.876Z,100.00
2023-09-12T04:18:11.872Z,100.00
2023-09-12T04:20:39.724Z,100.00
2023-09-12T04:23:07.590Z,100.00
2023-09-12T04:25:35.251Z,100.00
2023-09-12T04:28:03.631Z,100.00
2023-09-12T04:30:32.771Z,100.00
2023-09-12T04:33:00.544Z,100.00
2023-09-12T04:35:28.259Z,100.00
2023-09-12T04:37:56.729Z,100.00
2023-09-12T04:40:24.410Z,100.00
2023-09-12T04:42:52.260Z,100.00
2023-09-12T04:45:19.933Z,100.00
2023-09-12T04:47:48.131Z,100.00
2023-09-12T04:50:15.959Z,100.00
2023-09-12T04:52:43.827Z,100.00
2023-09-12T04:55:11.490Z,100.00
2023-09-12T04:57:41.350Z,100.00
2023-09-12T05:00:12.298Z,100.00
2023-09-12T05:02:40.322Z,100.00
2023-09-12T05:05:08.376Z,100.00
2023-09-12T05:07:36.274Z,100.00
2023-09-12T05:10:05.125Z,100.00
2023-09-12T05:12:33.081Z,100.00
2023-09-12T05:15:00.974Z,100.00
2023-09-12T05:17:29.035Z,100.00
2023-09-12T05:19:58.079Z,100.00
2023-09-12T05:22:25.692Z,100.00
2023-09-12T05:24:53.353Z,100.00
2023-09-12T05:27:21.124Z,100.00
2023-09-12T05:29:48.981Z,100.00
2023-09-12T05:32:18.028Z,100.00
2023-09-12T05:34:46.659Z,100.00
2023-09-12T05:37:14.944Z,100.00
2023-09-12T05:39:43.200Z,100.00
2023-09-12T05:42:11.117Z,100.00
2023-09-12T05:44:38.839Z,100.00
2023-09-12T05:47:08.352Z,100.00
2023-09-12T05:49:36.124Z,100.00
2023-09-12T05:52:05.384Z,100.00
2023-09-12T05:54:33.437Z,100.00
2023-09-12T05:57:01.447Z,100.00
2023-09-12T05:59:29.111Z,100.00
2023-09-12T06:01:56.881Z,100.00
2023-09-12T06:04:25.656Z,100.00
2023-09-12T06:06:53.421Z,100.00
2023-09-12T06:09:21.204Z,100.00
2023-09-12T06:11:49.161Z,100.00
2023-09-12T06:14:16.816Z,100.00
2023-09-12T06:16:44.617Z,100.00
2023-09-12T06:19:12.343Z,100.00
2023-09-12T06:21:40.024Z,100.00
2023-09-12T06:24:15.249Z,100.00
2023-09-12T06:26:43.012Z,100.00
2023-09-12T06:29:10.778Z,100.00
2023-09-12T06:31:38.533Z,100.00
2023-09-12T06:34:06.304Z,100.00
2023-09-12T06:36:34.128Z,100.00
2023-09-12T06:39:02.355Z,100.00
2023-09-12T06:41:30.032Z,100.00
2023-09-12T06:43:59.787Z,100.00
2023-09-12T06:46:28.790Z,100.00
2023-09-12T06:48:57.548Z,100.00
2023-09-12T06:51:29.503Z,100.00
2023-09-12T06:53:58.858Z,100.00
2023-09-12T06:56:26.513Z,100.00
2023-09-12T06:58:56.326Z,100.00
2023-09-12T07:01:24.125Z,100.00
2023-09-12T07:03:55.510Z,100.00
2023-09-12T07:06:24.142Z,100.00
2023-09-12T07:08:52.814Z,100.00
2023-09-12T07:11:20.978Z,100.00
2023-09-12T07:13:49.655Z,100.00
2023-09-12T07:16:18.924Z,100.00
2023-09-12T07:18:47.815Z,100.00
2023-09-12T07:21:15.641Z,100.00
2023-09-12T07:23:43.459Z,100.00
2023-09-12T07:26:15.156Z,100.00
2023-09-12T07:28:42.806Z,100.00
2023-09-12T07:31:10.666Z,100.00
2023-09-12T07:33:38.521Z,100.00
2023-09-12T07:37:48.219Z,100.00
2023-09-12T07:40:15.676Z,100.00
2023-09-12T07:42:42.434Z,100.00
2023-09-12T07:45:10.834Z,100.00
2023-09-12T07:47:37.949Z,100.00
2023-09-12T07:50:07.183Z,100.00
2023-09-12T07:52:35.115Z,100.00
2023-09-12T07:55:03.179Z,100.00
2023-09-12T07:57:30.679Z,99.67
2023-09-12T07:59:57.783Z,93.51
2023-09-12T08:02:24.628Z,84.00
2023-09-12T08:04:51.522Z,79.99
2023-09-12T08:07:18.524Z,74.23
2023-09-12T08:09:56.727Z,72.28
2023-09-12T08:12:24.834Z,74.54
2023-09-12T08:14:52.451Z,74.50
2023-09-12T08:17:20.315Z,74.32
2023-09-12T08:19:47.260Z,69.61
2023-09-12T08:22:14.208Z,68.24
2023-09-12T08:24:41.247Z,68.94
2023-09-12T08:27:08.406Z,69.60
2023-09-12T08:29:35.439Z,69.16
2023-09-12T08:32:02.546Z,66.64
2023-09-12T08:34:29.745Z,63.04
2023-09-12T08:36:57.214Z,62.50
2023-09-12T08:39:25.502Z,60.26
2023-09-12T08:41:53.700Z,59.98
2023-09-12T08:44:21.385Z,60.34
2023-09-12T08:46:48.571Z,58.68
2023-09-12T08:49:16.148Z,57.41
2023-09-12T08:51:43.235Z,57.82
2023-09-12T08:54:10.320Z,56.85
2023-09-12T08:56:39.952Z,54.82
2023-09-12T08:59:06.769Z,54.22
2023-09-12T09:01:33.967Z,54.34
2023-09-12T09:04:03.227Z,55.34
2023-09-12T09:06:33.615Z,55.43
2023-09-12T09:09:01.003Z,55.29
2023-09-12T09:11:28.607Z,54.69
2023-09-12T09:13:56.885Z,54.43
2023-09-12T09:16:23.793Z,52.84
2023-09-12T09:19:01.347Z,51.32
2023-09-12T09:21:31.392Z,49.64
2023-09-12T09:24:05.801Z,48.20
2023-09-12T09:26:45.464Z,49.25
2023-09-12T09:29:15.979Z,49.18
2023-09-12T09:31:43.897Z,49.40
2023-09-12T09:34:14.335Z,49.96
2023-09-12T09:36:43.804Z,49.97
2023-09-12T09:39:11.565Z,48.77
2023-09-12T09:41:38.794Z,49.03
2023-09-12T09:44:09.216Z,50.11
2023-09-12T09:46:39.176Z,49.41
2023-09-12T09:49:07.731Z,50.00
2023-09-12T09:51:46.062Z,48.68
2023-09-12T09:54:14.210Z,48.65
2023-09-12T09:56:48.096Z,49.17
2023-09-12T09:59:21.423Z,49.82
2023-09-12T10:01:49.832Z,49.40
2023-09-12T10:04:16.892Z,49.88
2023-09-12T10:06:45.085Z,48.79
2023-09-12T10:09:13.364Z,47.09
2023-09-12T10:11:42.392Z,46.24
2023-09-12T10:14:09.215Z,45.61
2023-09-12T10:16:39.671Z,46.70
2023-09-12T10:19:25.576Z,45.88
2023-09-12T10:21:59.438Z,46.33
2023-09-12T10:24:26.715Z,45.06
2023-09-12T10:26:53.724Z,46.18
2023-09-12T10:29:20.562Z,45.17
2023-09-12T10:31:47.944Z,44.98
2023-09-12T10:34:17.262Z,44.96
2023-09-12T10:36:46.184Z,45.96
2023-09-12T10:39:13.358Z,44.98
2023-09-12T10:41:40.837Z,44.91
2023-09-12T10:44:11.553Z,45.22
2023-09-12T10:46:41.495Z,44.96
2023-09-12T10:49:11.986Z,45.21
2023-09-12T10:51:42.875Z,44.25
2023-09-12T10:54:13.865Z,43.99
2023-09-12T10:56:40.912Z,44.71
2023-09-12T10:59:07.770Z,44.24
2023-09-12T11:01:35.511Z,45.18
2023-09-12T11:04:31.482Z,43.59
2023-09-12T11:06:59.171Z,44.11
2023-09-12T11:09:29.038Z,44.38
2023-09-12T11:11:58.596Z,44.62
2023-09-12T11:14:26.911Z,44.28
2023-09-12T11:17:09.190Z,42.50
2023-09-12T11:19:49.355Z,42.62
2023-09-12T11:22:27.504Z,43.26
2023-09-12T11:24:56.844Z,41.51
2023-09-12T11:27:25.882Z,41.54
2023-09-12T11:29:52.803Z,41.07
2023-09-12T11:32:28.768Z,39.90
2023-09-12T11:34:55.805Z,40.64
2023-09-12T11:37:26.846Z,40.58
2023-09-12T11:39:54.894Z,40.48
2023-09-12T11:42:23.634Z,39.98
2023-09-12T11:44:50.751Z,41.44
2023-09-12T11:47:17.901Z,41.49
2023-09-12T11:49:45.153Z,41.88
2023-09-12T11:52:20.282Z,42.16
2023-09-12T11:54:47.242Z,41.42
2023-09-12T11:57:15.404Z,42.16
2023-09-12T11:59:47.378Z,42.62
2023-09-12T12:02:15.028Z,42.96
2023-09-12T12:04:42.358Z,43.15
2023-09-12T12:07:09.699Z,43.62
2023-09-12T12:09:36.676Z,43.19
2023-09-12T12:12:13.752Z,42.62
2023-09-12T12:14:41.737Z,40.64
2023-09-12T12:17:12.067Z,40.92
2023-09-12T12:19:39.567Z,40.52
2023-09-12T12:22:07.225Z,42.52
2023-09-12T12:24:45.982Z,43.05
2023-09-12T12:27:16.024Z,43.78
2023-09-12T12:29:44.491Z,43.55
2023-09-12T12:32:11.794Z,43.24
2023-09-12T12:35:35.323Z,42.94
2023-09-12T12:37:31.066Z,42.62
2023-09-12T12:39:59.079Z,42.18
2023-09-12T12:42:47.484Z,42.95
2023-09-12T12:45:20.649Z,42.72
2023-09-12T12:47:49.834Z,41.23
2023-09-12T12:50:20.046Z,41.73
2023-09-12T12:52:48.526Z,43.76
2023-09-12T12:55:17.512Z,41.73
2023-09-12T12:57:45.002Z,42.19
2023-09-12T13:00:16.018Z,43.16
2023-09-12T13:02:43.797Z,43.54
2023-09-12T13:05:30.389Z,43.62
2023-09-12T13:07:57.335Z,43.04
2023-09-12T13:10:24.880Z,43.20
2023-09-12T13:12:51.761Z,43.10
2023-09-12T13:15:19.388Z,42.95
2023-09-12T13:17:46.247Z,42.59
2023-09-12T13:20:13.070Z,41.50
2023-09-12T13:22:40.505Z,40.86
2023-09-12T13:25:08.294Z,41.72
2023-09-12T13:27:35.394Z,41.42
2023-09-12T13:30:04.136Z,42.63
2023-09-12T13:32:31.102Z,43.70
2023-09-12T13:34:58.016Z,42.53
2023-09-12T13:37:25.317Z,42.08
2023-09-12T13:39:52.254Z,41.75
2023-09-12T13:42:20.295Z,41.86
2023-09-12T13:44:48.354Z,41.46
2023-09-12T13:47:22.107Z,42.59
2023-09-12T13:49:49.814Z,43.07
2023-09-12T13:52:16.864Z,41.98
2023-09-12T13:54:44.273Z,41.62
2023-09-12T13:57:11.168Z,42.01
2023-09-12T13:59:45.235Z,41.91
2023-09-12T14:02:13.723Z,43.04
2023-09-12T14:04:41.488Z,42.98
2023-09-12T14:07:09.587Z,43.01
2023-09-12T14:09:36.954Z,43.26
2023-09-12T14:12:10.036Z,42.48
2023-09-12T14:14:39.540Z,41.91
2023-09-12T14:17:07.497Z,42.66
2023-09-12T14:19:35.861Z,43.53
2023-09-12T14:22:04.279Z,43.93
2023-09-12T14:24:32.654Z,44.67
2023-09-12T14:27:01.304Z,44.49
2023-09-12T14:29:30.825Z,43.57
2023-09-12T14:32:00.357Z,44.09
2023-09-12T14:34:28.313Z,44.54
2023-09-12T14:36:55.996Z,44.71
2023-09-12T14:39:23.550Z,45.00
2023-09-12T14:41:52.613Z,45.79
2023-09-12T14:44:19.556Z,45.50
2023-09-12T14:46:46.645Z,46.04
2023-09-12T14:49:14.091Z,46.24
2023-09-12T14:51:41.121Z,46.77
2023-09-12T14:54:08.152Z,47.32
2023-09-12T14:56:35.218Z,48.55
2023-09-12T14:59:03.794Z,49.46
2023-09-12T15:01:31.022Z,50.47
2023-09-12T15:03:58.256Z,50.94
2023-09-12T15:06:25.770Z,50.85
2023-09-12T15:08:53.194Z,52.04
2023-09-12T15:11:20.147Z,52.53
2023-09-12T15:13:47.517Z,53.36
2023-09-12T15:16:15.130Z,53.65
2023-09-12T15:18:42.858Z,53.63
2023-09-12T15:21:09.863Z,53.59
2023-09-12T15:23:38.139Z,53.64
2023-09-12T15:26:05.196Z,54.52
2023-09-12T15:28:32.237Z,55.82
2023-09-12T15:31:02.503Z,56.97
2023-09-12T15:33:30.528Z,58.03
2023-09-12T15:35:57.883Z,58.70
2023-09-12T15:38:24.834Z,60.40
2023-09-12T15:40:52.584Z,61.55
2023-09-12T15:43:24.383Z,61.67
2023-09-12T15:45:53.714Z,61.84
2023-09-12T15:48:20.846Z,62.68
2023-09-12T15:50:48.353Z,63.98
2023-09-12T15:53:15.911Z,64.99
2023-09-12T15:55:43.274Z,66.14
2023-09-12T15:58:10.604Z,67.03
2023-09-12T16:00:38.345Z,68.47
2023-09-12T16:03:05.603Z,75.03
2023-09-12T16:05:33.515Z,97.79
2023-09-12T16:08:00.353Z,100.00
2023-09-12T16:10:28.208Z,100.00
2023-09-12T16:12:55.224Z,100.00
2023-09-12T16:15:22.305Z,100.00
2023-09-12T16:17:49.238Z,100.00
2023-09-12T16:20:16.189Z,100.00
2023-09-12T16:22:43.551Z,100.00
2023-09-12T16:25:10.815Z,100.00
2023-09-12T16:27:38.004Z,100.00
2023-09-12T16:30:08.291Z,100.00
2023-09-12T16:32:37.000Z,100.00
2023-09-12T16:35:05.222Z,100.00
2023-09-12T16:37:33.091Z,100.00
2023-09-12T16:40:01.414Z,100.00
2023-09-12T16:42:30.998Z,100.00
2023-09-12T16:45:00.071Z,100.00
2023-09-12T16:47:30.410Z,100.00
2023-09-12T16:49:57.538Z,100.00
2023-09-12T16:52:24.594Z,100.00
2023-09-12T16:54:51.471Z,100.00
2023-09-12T16:57:18.302Z,100.00
2023-09-12T16:59:45.829Z,100.00
2023-09-12T17:02:13.144Z,100.00
2023-09-12T17:04:41.383Z,100.00
2023-09-12T17:07:10.896Z,100.00
2023-09-12T17:09:38.676Z,100.00
2023-09-12T17:12:07.206Z,100.00
2023-09-12T17:14:34.251Z,100.00
2023-09-12T17:17:01.427Z,100.00
2023-09-12T17:19:29.782Z,100.00
2023-09-12T17:21:56.877Z,100.00
2023-09-12T17:24:24.819Z,100.00
2023-09-12T17:26:51.764Z,100.00
2023-09-12T17:29:18.992Z,100.00
2023-09-12T17:31:45.979Z,100.00
2023-09-12T17:34:14.431Z,100.00
2023-09-12T17:36:41.437Z,100.00
2023-09-12T17:39:10.039Z,100.00
2023-09-12T17:41:37.186Z,100.00
2023-09-12T17:44:06.079Z,100.00
2023-09-12T17:46:34.189Z,100.00
2023-09-12T17:49:01.946Z,100.00
2023-09-12T17:51:31.444Z,100.00
2023-09-12T17:53:58.460Z,100.00
2023-09-12T17:56:25.514Z,100.00
2023-09-12T17:58:52.351Z,100.00
2023-09-12T18:01:19.800Z,100.00
2023-09-12T18:03:47.151Z,100.00
2023-09-12T18:06:15.025Z,100.00
2023-09-12T18:08:41.868Z,100.00
2023-09-12T18:11:11.993Z,100.00
2023-09-12T18:13:42.492Z,100.00
2023-09-12T18:16:10.154Z,100.00
2023-09-12T18:18:38.157Z,100.00
2023-09-12T18:21:05.095Z,100.00
2023-09-12T18:23:32.038Z,100.00
2023-09-12T18:26:00.051Z,100.00
2023-09-12T18:28:44.462Z,100.00
2023-09-12T18:31:13.141Z,100.00
2023-09-12T18:33:40.672Z,100.00
2023-09-12T18:36:09.289Z,100.00
2023-09-12T18:38:37.252Z,100.00
2023-09-12T18:41:04.610Z,100.00
2023-09-12T18:43:32.539Z,100.00
2023-09-12T18:46:00.608Z,100.00
2023-09-12T18:48:27.957Z,100.00
2023-09-12T18:50:56.294Z,100.00
2023-09-12T18:53:23.270Z,100.00
2023-09-12T18:55:50.487Z,100.00
2023-09-12T18:58:17.310Z,100.00
2023-09-12T19:00:44.899Z,100.00
2023-09-12T19:03:14.768Z,100.00
2023-09-12T19:05:43.430Z,100.00
2023-09-12T19:08:11.646Z,100.00
2023-09-12T19:10:39.311Z,100.00
2023-09-12T19:13:08.638Z,100.00
2023-09-12T19:15:38.805Z,100.00
2023-09-12T19:18:07.549Z,100.00
2023-09-12T19:20:34.972Z,100.00
2023-09-12T19:23:03.658Z,100.00
2023-09-12T19:25:30.610Z,100.00
2023-09-12T19:27:57.614Z,100.00
2023-09-12T19:30:26.358Z,100.00
2023-09-12T19:32:53.747Z,100.00
2023-09-12T19:35:20.835Z,100.00
2023-09-12T19:37:48.087Z,100.00
2023-09-12T19:40:16.684Z,100.00
2023-09-12T19:42:43.991Z,100.00
2023-09-12T19:45:11.268Z,100.00
2023-09-12T19:47:50.266Z,100.00
2023-09-12T19:50:25.127Z,100.00
2023-09-12T19:55:13.051Z,100.00
2023-09-12T19:57:46.652Z,100.00
2023-09-12T20:00:15.535Z,100.00
2023-09-12T20:02:45.310Z,100.00
2023-09-12T20:05:13.443Z,100.00
2023-09-12T20:07:41.209Z,100.00
2023-09-12T20:10:09.347Z,100.00
2023-09-12T20:12:37.070Z,100.00
2023-09-12T20:15:05.621Z,100.00
2023-09-12T20:17:33.227Z,100.00
2023-09-12T20:20:01.458Z,100.00
2023-09-12T20:22:31.069Z,100.00
2023-09-12T20:24:58.760Z,100.00
2023-09-12T20:27:27.023Z,100.00
2023-09-12T20:29:54.676Z,100.00
2023-09-12T20:32:22.329Z,100.00
2023-09-12T20:34:49.939Z,100.00
2023-09-12T20:37:18.592Z,100.00
2023-09-12T20:39:48.045Z,100.00
2023-09-12T20:42:15.743Z,100.00
2023-09-12T20:44:43.394Z,100.00
2023-09-12T20:47:10.951Z,100.00
2023-09-12T20:49:39.336Z,100.00
2023-09-12T20:52:07.095Z,100.00
2023-09-12T20:54:37.806Z,100.00
2023-09-12T20:57:06.055Z,100.00
2023-09-12T20:59:33.667Z,100.00
2023-09-12T21:02:01.440Z,100.00
2023-09-12T21:04:29.430Z,100.00
2023-09-12T21:06:57.099Z,100.00
2023-09-12T21:09:24.919Z,100.00
2023-09-12T21:11:52.583Z,100.00
2023-09-12T21:14:20.554Z,100.00
2023-09-12T21:16:48.536Z,100.00
2023-09-12T21:19:16.386Z,100.00
2023-09-12T21:21:44.405Z,100.00
2023-09-12T21:24:12.217Z,100.00
2023-09-12T21:26:39.889Z,100.00
2023-09-12T21:29:07.437Z,100.00
2023-09-12T21:31:35.366Z,100.00
2023-09-12T21:34:03.952Z,100.00
2023-09-12T21:36:32.778Z,100.00
2023-09-12T21:39:02.216Z,100.00
2023-09-12T21:41:30.252Z,100.00
2023-09-12T21:43:57.916Z,100.00
2023-09-12T21:46:25.646Z,100.00
2023-09-12T21:48:53.597Z,100.00
2023-09-12T21:51:21.816Z,100.00
2023-09-12T21:53:50.907Z,100.00
2023-09-12T21:56:18.467Z,100.00
2023-09-12T21:58:46.540Z,100.00
2023-09-12T22:01:14.254Z,100.00
2023-09-12T22:03:42.987Z,100.00
2023-09-12T22:06:12.840Z,100.00
2023-09-12T22:08:41.383Z,100.00
2023-09-12T22:11:09.148Z,100.00
2023-09-12T22:13:36.805Z,100.00
2023-09-12T22:16:05.517Z,100.00
2023-09-12T22:18:33.254Z,100.00
2023-09-12T22:21:01.025Z,100.00
2023-09-12T22:23:28.697Z,100.00
2023-09-12T22:25:58.078Z,100.00
2023-09-12T22:28:26.661Z,100.00
2023-09-12T22:30:55.015Z,100.00
2023-09-12T22:33:22.833Z,100.00
2023-09-12T22:36:08.303Z,100.00
2023-09-12T22:38:43.010Z,100.00
2023-09-12T22:41:11.388Z,100.00
2023-09-12T22:43:39.122Z,100.00
2023-09-12T22:46:08.771Z,100.00
2023-09-12T22:48:36.677Z,100.00
2023-09-12T22:51:05.207Z,100.00
2023-09-12T22:53:32.867Z,100.00
2023-09-12T22:56:01.040Z,100.00
2023-09-12T22:58:28.703Z,100.00
2023-09-12T23:00:56.983Z,100.00
2023-09-12T23:03:25.152Z,100.00
2023-09-12T23:05:53.527Z,100.00
2023-09-12T23:08:21.191Z,100.00
2023-09-12T23:10:49.094Z,100.00
2023-09-12T23:13:17.240Z,100.00
2023-09-12T23:15:44.955Z,100.00
2023-09-12T23:18:14.432Z,100.00
2023-09-12T23:20:42.503Z,100.00
2023-09-12T23:23:09.955Z,100.00
2023-09-12T23:25:38.049Z,100.00
2023-09-12T23:28:07.801Z,100.00
2023-09-12T23:30:35.418Z,100.00
2023-09-12T23:33:04.077Z,100.00
2023-09-12T23:38:56.919Z,100.00
2023-09-12T23:41:24.680Z,100.00
2023-09-12T23:43:52.248Z,100.00
2023-09-12T23:46:20.720Z,100.00
2023-09-12T23:48:48.678Z,100.00
2023-09-12T23:51:16.967Z,100.00
2023-09-12T23:53:45.651Z,100.00
2023-09-12T23:56:14.241Z,100.00
2023-09-12T23:58:41.792Z,100.00
